Aérodrome :
LOGIN :

S'inscrire | Disclaimer

   EN    FR    IT 

 










Légende :    VFR   VFR Marginal   IFR   IFR Intensif   IFR Très Intensif
Visi : 
Plafond : 
>= 8 km
>= 3000ft
5 à 8 km
1000 à 3000 ft
1500m à 5 km
500 à 1000 ft
800 à 1500m
200 à 500 ft
< 800m
< 200 ft
Symboles :   Orages  Brouillard  Fortes neiges  Fortes précipitations  Vent > 20 kt
SIGMETs :   Divers  Orages  Givrage  Turbulence  Onde Orograph.  Cendres Volcan.






- Altitude de l'aérodrome : 170 ft
- Code IATA : BGO


ENBR - Bergen , Flesland

DERNIER METAR :
  • 050350Z 07007KT 9999 FEW025 SCT065 13/07 Q0987 RMK WIND 1200FT 08008KT

METARs EXPIRÉS :
  • 050320Z 06006KT 9999 FEW020 SCT060 11/09 Q0988 RMK WIND 1200FT 08010KT
  • 050250Z VRB03KT 9999 FEW020 SCT060 10/10 Q0988 RMK WIND 1200FT 08008KT
  • 050220Z VRB02KT 9999 FEW020 SCT065 10/10 Q0988 RMK WIND 1200FT 08008KT
  • 050150Z 34002KT 9999 FEW015 BKN065 10/10 Q0989 RMK WIND 1200FT 09006KT
  • 050120Z 36003KT 9999 FEW015 BKN065 10/10 Q0989 RMK WIND 1200FT 08006KT

TAF TAF ENBR
Valide du 05 à 00h jusqu'au 06 à 00h UTC


0500/0524 36010KT 9999 -SHRA FEW012 BKN030
BECMG 0506/0509 12008KT



MET'MAP, la Météo Aéronautique d'un coup d'oeil ! - Copyright ORBIFLY Décembre 2007 - Disclaimer

ORBIFLY MET'MAP TEAM :

Programmation & Développement : Alexandra Zaïnal
Sur une idée originale de : Baudouin d'Aumeries
Assistance à la programmation : Marc-Olivier Méhu
Soutien technique & logistique : Manuel Goepfert

Contact : metmap@orbifly.com




SOURCES & CREDITS :

   NOAA